sensor_id;sensor_type;location;lat;lon;timestamp;P1;durP1;ratioP1;P2;durP2;ratioP2
68256;SDS011;55069;51.568;4.656;2022-08-05T00:00:47;10.03;;;2.90;;
68256;SDS011;55069;51.568;4.656;2022-08-05T00:03:12;18.73;;;3.90;;
68256;SDS011;55069;51.568;4.656;2022-08-05T00:05:38;11.85;;;3.13;;
68256;SDS011;55069;51.568;4.656;2022-08-05T00:08:03;9.10;;;3.20;;
68256;SDS011;55069;51.568;4.656;2022-08-05T00:10:29;9.60;;;2.97;;
68256;SDS011;55069;51.568;4.656;2022-08-05T00:12:55;11.53;;;3.73;;
68256;SDS011;55069;51.568;4.656;2022-08-05T00:15:20;10.45;;;3.25;;
68256;SDS011;55069;51.568;4.656;2022-08-05T00:17:46;10.02;;;3.30;;
68256;SDS011;55069;51.568;4.656;2022-08-05T00:20:12;10.07;;;3.00;;
68256;SDS011;55069;51.568;4.656;2022-08-05T00:22:37;9.18;;;2.78;;
68256;SDS011;55069;51.568;4.656;2022-08-05T00:25:03;12.53;;;3.17;;
68256;SDS011;55069;51.568;4.656;2022-08-05T00:27:29;10.95;;;3.58;;
68256;SDS011;55069;51.568;4.656;2022-08-05T00:29:54;14.63;;;2.97;;
68256;SDS011;55069;51.568;4.656;2022-08-05T00:32:20;10.27;;;2.92;;
68256;SDS011;55069;51.568;4.656;2022-08-05T00:34:46;16.43;;;3.53;;
68256;SDS011;55069;51.568;4.656;2022-08-05T00:37:12;17.50;;;3.70;;
68256;SDS011;55069;51.568;4.656;2022-08-05T00:39:37;12.88;;;3.38;;
68256;SDS011;55069;51.568;4.656;2022-08-05T00:42:04;13.18;;;3.60;;
68256;SDS011;55069;51.568;4.656;2022-08-05T00:44:30;11.60;;;3.50;;
68256;SDS011;55069;51.568;4.656;2022-08-05T00:46:55;11.98;;;3.40;;
68256;SDS011;55069;51.568;4.656;2022-08-05T00:49:21;8.40;;;2.87;;
68256;SDS011;55069;51.568;4.656;2022-08-05T00:51:46;14.65;;;3.28;;
68256;SDS011;55069;51.568;4.656;2022-08-05T00:54:12;11.30;;;3.25;;
68256;SDS011;55069;51.568;4.656;2022-08-05T00:56:38;13.63;;;3.87;;
68256;SDS011;55069;51.568;4.656;2022-08-05T00:59:04;12.73;;;4.07;;
68256;SDS011;55069;51.568;4.656;2022-08-05T01:01:30;12.38;;;3.78;;
68256;SDS011;55069;51.568;4.656;2022-08-05T01:03:55;12.00;;;3.13;;
68256;SDS011;55069;51.568;4.656;2022-08-05T01:06:21;8.85;;;3.20;;
68256;SDS011;55069;51.568;4.656;2022-08-05T01:08:47;8.37;;;3.00;;
68256;SDS011;55069;51.568;4.656;2022-08-05T01:11:14;10.77;;;3.33;;
68256;SDS011;55069;51.568;4.656;2022-08-05T01:16:33;9.65;;;3.42;;
68256;SDS011;55069;51.568;4.656;2022-08-05T01:19:05;16.52;;;3.65;;
68256;SDS011;55069;51.568;4.656;2022-08-05T01:24:34;12.53;;;3.23;;
68256;SDS011;55069;51.568;4.656;2022-08-05T01:29:49;13.70;;;3.60;;
68256;SDS011;55069;51.568;4.656;2022-08-05T01:32:19;8.07;;;3.47;;
68256;SDS011;55069;51.568;4.656;2022-08-05T01:34:48;8.27;;;3.50;;
68256;SDS011;55069;51.568;4.656;2022-08-05T01:37:21;15.50;;;4.17;;
68256;SDS011;55069;51.568;4.656;2022-08-05T01:39:52;16.52;;;4.40;;
68256;SDS011;55069;51.568;4.656;2022-08-05T01:42:19;9.68;;;3.53;;
68256;SDS011;55069;51.568;4.656;2022-08-05T01:44:48;16.45;;;4.20;;
68256;SDS011;55069;51.568;4.656;2022-08-05T01:47:16;12.48;;;4.35;;
68256;SDS011;55069;51.568;4.656;2022-08-05T01:49:44;14.13;;;4.50;;
68256;SDS011;55069;51.568;4.656;2022-08-05T01:52:12;10.15;;;4.57;;
68256;SDS011;55069;51.568;4.656;2022-08-05T01:54:40;13.55;;;4.63;;
68256;SDS011;55069;51.568;4.656;2022-08-05T01:57:09;12.13;;;4.22;;
68256;SDS011;55069;51.568;4.656;2022-08-05T01:59:37;11.65;;;3.72;;
68256;SDS011;55069;51.568;4.656;2022-08-05T02:02:05;17.93;;;4.07;;
68256;SDS011;55069;51.568;4.656;2022-08-05T02:04:32;12.73;;;4.13;;
68256;SDS011;55069;51.568;4.656;2022-08-05T02:07:00;12.73;;;3.90;;
68256;SDS011;55069;51.568;4.656;2022-08-05T02:09:26;12.87;;;4.13;;
68256;SDS011;55069;51.568;4.656;2022-08-05T02:14:39;11.40;;;4.32;;
68256;SDS011;55069;51.568;4.656;2022-08-05T02:17:15;11.70;;;4.22;;
68256;SDS011;55069;51.568;4.656;2022-08-05T02:19:47;16.08;;;4.25;;
68256;SDS011;55069;51.568;4.656;2022-08-05T02:22:30;9.73;;;4.03;;
68256;SDS011;55069;51.568;4.656;2022-08-05T02:25:21;14.93;;;4.20;;
68256;SDS011;55069;51.568;4.656;2022-08-05T02:27:51;8.98;;;3.60;;
68256;SDS011;55069;51.568;4.656;2022-08-05T02:30:20;13.98;;;4.00;;
68256;SDS011;55069;51.568;4.656;2022-08-05T02:32:48;12.73;;;3.97;;
68256;SDS011;55069;51.568;4.656;2022-08-05T02:35:18;8.97;;;4.10;;
68256;SDS011;55069;51.568;4.656;2022-08-05T02:37:45;13.07;;;4.25;;
68256;SDS011;55069;51.568;4.656;2022-08-05T02:40:17;10.55;;;4.10;;
68256;SDS011;55069;51.568;4.656;2022-08-05T02:42:44;9.50;;;4.40;;
68256;SDS011;55069;51.568;4.656;2022-08-05T02:45:11;12.75;;;4.20;;
68256;SDS011;55069;51.568;4.656;2022-08-05T02:47:38;14.10;;;4.20;;
68256;SDS011;55069;51.568;4.656;2022-08-05T02:50:05;15.25;;;3.78;;
68256;SDS011;55069;51.568;4.656;2022-08-05T02:52:32;9.43;;;4.82;;
68256;SDS011;55069;51.568;4.656;2022-08-05T02:54:59;8.75;;;4.40;;
68256;SDS011;55069;51.568;4.656;2022-08-05T02:57:25;11.93;;;3.83;;
68256;SDS011;55069;51.568;4.656;2022-08-05T02:59:52;14.60;;;4.50;;
68256;SDS011;55069;51.568;4.656;2022-08-05T03:02:19;9.13;;;3.45;;
68256;SDS011;55069;51.568;4.656;2022-08-05T03:04:46;9.35;;;4.43;;
68256;SDS011;55069;51.568;4.656;2022-08-05T03:07:14;11.07;;;4.15;;
68256;SDS011;55069;51.568;4.656;2022-08-05T03:09:41;9.38;;;4.35;;
68256;SDS011;55069;51.568;4.656;2022-08-05T03:12:08;10.97;;;3.90;;
68256;SDS011;55069;51.568;4.656;2022-08-05T03:14:34;9.50;;;3.55;;
68256;SDS011;55069;51.568;4.656;2022-08-05T03:17:00;9.13;;;3.90;;
68256;SDS011;55069;51.568;4.656;2022-08-05T03:19:26;9.33;;;3.63;;
68256;SDS011;55069;51.568;4.656;2022-08-05T03:21:51;9.20;;;3.38;;
68256;SDS011;55069;51.568;4.656;2022-08-05T03:24:17;10.37;;;3.57;;
68256;SDS011;55069;51.568;4.656;2022-08-05T03:26:44;7.15;;;3.42;;
68256;SDS011;55069;51.568;4.656;2022-08-05T03:29:10;9.00;;;3.55;;
68256;SDS011;55069;51.568;4.656;2022-08-05T03:31:35;7.20;;;3.23;;
68256;SDS011;55069;51.568;4.656;2022-08-05T03:34:02;10.25;;;4.07;;
68256;SDS011;55069;51.568;4.656;2022-08-05T03:36:29;7.93;;;3.53;;
68256;SDS011;55069;51.568;4.656;2022-08-05T03:38:55;11.90;;;3.33;;
68256;SDS011;55069;51.568;4.656;2022-08-05T03:41:21;8.47;;;3.43;;
68256;SDS011;55069;51.568;4.656;2022-08-05T03:43:47;7.40;;;3.17;;
68256;SDS011;55069;51.568;4.656;2022-08-05T03:46:12;14.60;;;3.63;;
68256;SDS011;55069;51.568;4.656;2022-08-05T03:48:38;10.55;;;3.05;;
68256;SDS011;55069;51.568;4.656;2022-08-05T03:51:16;11.50;;;3.33;;
68256;SDS011;55069;51.568;4.656;2022-08-05T03:53:59;9.60;;;3.55;;
68256;SDS011;55069;51.568;4.656;2022-08-05T03:56:40;11.37;;;3.77;;
68256;SDS011;55069;51.568;4.656;2022-08-05T03:59:09;8.77;;;3.08;;
68256;SDS011;55069;51.568;4.656;2022-08-05T04:01:41;9.50;;;3.10;;
68256;SDS011;55069;51.568;4.656;2022-08-05T04:04:10;11.93;;;3.75;;
68256;SDS011;55069;51.568;4.656;2022-08-05T04:06:37;7.05;;;3.67;;
68256;SDS011;55069;51.568;4.656;2022-08-05T04:09:04;7.63;;;3.53;;
68256;SDS011;55069;51.568;4.656;2022-08-05T04:11:31;11.13;;;3.90;;
68256;SDS011;55069;51.568;4.656;2022-08-05T04:13:57;10.60;;;4.50;;
68256;SDS011;55069;51.568;4.656;2022-08-05T04:16:24;11.15;;;4.78;;
68256;SDS011;55069;51.568;4.656;2022-08-05T04:18:50;8.07;;;4.60;;
68256;SDS011;55069;51.568;4.656;2022-08-05T04:21:16;8.27;;;4.50;;
68256;SDS011;55069;51.568;4.656;2022-08-05T04:23:41;8.82;;;4.75;;
68256;SDS011;55069;51.568;4.656;2022-08-05T04:26:08;7.57;;;4.25;;
68256;SDS011;55069;51.568;4.656;2022-08-05T04:28:34;8.77;;;4.60;;
68256;SDS011;55069;51.568;4.656;2022-08-05T04:31:00;10.55;;;4.13;;
68256;SDS011;55069;51.568;4.656;2022-08-05T04:33:26;9.15;;;3.90;;
68256;SDS011;55069;51.568;4.656;2022-08-05T04:35:52;9.80;;;4.20;;
68256;SDS011;55069;51.568;4.656;2022-08-05T04:38:18;9.00;;;3.93;;
68256;SDS011;55069;51.568;4.656;2022-08-05T04:40:44;8.70;;;3.90;;
68256;SDS011;55069;51.568;4.656;2022-08-05T04:43:09;9.57;;;3.23;;
68256;SDS011;55069;51.568;4.656;2022-08-05T04:45:35;9.90;;;3.15;;
68256;SDS011;55069;51.568;4.656;2022-08-05T04:48:05;11.60;;;3.13;;
68256;SDS011;55069;51.568;4.656;2022-08-05T04:50:39;7.65;;;2.97;;
68256;SDS011;55069;51.568;4.656;2022-08-05T04:53:07;8.27;;;2.67;;
68256;SDS011;55069;51.568;4.656;2022-08-05T04:55:35;7.32;;;2.55;;
68256;SDS011;55069;51.568;4.656;2022-08-05T04:58:02;7.78;;;2.53;;
68256;SDS011;55069;51.568;4.656;2022-08-05T05:00:30;7.30;;;2.77;;
68256;SDS011;55069;51.568;4.656;2022-08-05T05:02:59;6.68;;;2.30;;
68256;SDS011;55069;51.568;4.656;2022-08-05T05:05:25;6.70;;;2.53;;
68256;SDS011;55069;51.568;4.656;2022-08-05T05:07:52;5.75;;;2.60;;
68256;SDS011;55069;51.568;4.656;2022-08-05T05:10:24;5.63;;;2.10;;
68256;SDS011;55069;51.568;4.656;2022-08-05T05:12:50;7.35;;;2.35;;
68256;SDS011;55069;51.568;4.656;2022-08-05T05:15:16;8.07;;;2.60;;
68256;SDS011;55069;51.568;4.656;2022-08-05T05:17:42;5.77;;;1.93;;
68256;SDS011;55069;51.568;4.656;2022-08-05T05:20:09;7.47;;;2.55;;
68256;SDS011;55069;51.568;4.656;2022-08-05T05:22:36;5.85;;;2.22;;
68256;SDS011;55069;51.568;4.656;2022-08-05T05:25:01;6.03;;;2.10;;
68256;SDS011;55069;51.568;4.656;2022-08-05T05:27:29;6.63;;;2.20;;
68256;SDS011;55069;51.568;4.656;2022-08-05T05:29:57;4.10;;;2.00;;
68256;SDS011;55069;51.568;4.656;2022-08-05T05:32:22;9.93;;;2.53;;
68256;SDS011;55069;51.568;4.656;2022-08-05T05:34:48;15.68;;;2.40;;
68256;SDS011;55069;51.568;4.656;2022-08-05T05:37:14;7.00;;;2.15;;
68256;SDS011;55069;51.568;4.656;2022-08-05T05:39:40;9.00;;;2.53;;
68256;SDS011;55069;51.568;4.656;2022-08-05T05:42:07;8.18;;;1.90;;
68256;SDS011;55069;51.568;4.656;2022-08-05T05:44:32;5.53;;;1.83;;
68256;SDS011;55069;51.568;4.656;2022-08-05T05:46:58;8.38;;;1.77;;
68256;SDS011;55069;51.568;4.656;2022-08-05T05:49:24;4.32;;;1.90;;
68256;SDS011;55069;51.568;4.656;2022-08-05T05:51:51;7.63;;;1.92;;
68256;SDS011;55069;51.568;4.656;2022-08-05T05:54:17;8.47;;;2.33;;
68256;SDS011;55069;51.568;4.656;2022-08-05T05:56:42;5.45;;;1.83;;
68256;SDS011;55069;51.568;4.656;2022-08-05T05:59:08;6.32;;;2.03;;
68256;SDS011;55069;51.568;4.656;2022-08-05T06:01:35;4.10;;;1.70;;
68256;SDS011;55069;51.568;4.656;2022-08-05T06:04:02;4.60;;;1.60;;
68256;SDS011;55069;51.568;4.656;2022-08-05T06:06:28;5.10;;;1.85;;
68256;SDS011;55069;51.568;4.656;2022-08-05T06:08:54;8.90;;;2.17;;
68256;SDS011;55069;51.568;4.656;2022-08-05T06:11:20;9.00;;;2.03;;
68256;SDS011;55069;51.568;4.656;2022-08-05T06:13:45;5.47;;;2.20;;
68256;SDS011;55069;51.568;4.656;2022-08-05T06:16:11;6.00;;;2.20;;
68256;SDS011;55069;51.568;4.656;2022-08-05T06:18:36;5.73;;;2.13;;
68256;SDS011;55069;51.568;4.656;2022-08-05T06:21:03;5.65;;;1.73;;
68256;SDS011;55069;51.568;4.656;2022-08-05T06:23:28;8.10;;;1.80;;
68256;SDS011;55069;51.568;4.656;2022-08-05T06:25:54;9.57;;;1.90;;
68256;SDS011;55069;51.568;4.656;2022-08-05T06:28:19;3.97;;;1.60;;
68256;SDS011;55069;51.568;4.656;2022-08-05T06:30:45;5.68;;;2.35;;
68256;SDS011;55069;51.568;4.656;2022-08-05T06:33:11;8.75;;;2.30;;
68256;SDS011;55069;51.568;4.656;2022-08-05T06:35:37;5.73;;;1.80;;
68256;SDS011;55069;51.568;4.656;2022-08-05T06:38:03;5.95;;;2.20;;
68256;SDS011;55069;51.568;4.656;2022-08-05T06:40:28;5.90;;;1.90;;
68256;SDS011;55069;51.568;4.656;2022-08-05T06:42:54;4.50;;;1.53;;
68256;SDS011;55069;51.568;4.656;2022-08-05T06:45:20;5.00;;;1.23;;
68256;SDS011;55069;51.568;4.656;2022-08-05T06:47:46;4.97;;;1.20;;
68256;SDS011;55069;51.568;4.656;2022-08-05T06:50:12;6.00;;;1.40;;
68256;SDS011;55069;51.568;4.656;2022-08-05T06:52:37;6.40;;;1.00;;
68256;SDS011;55069;51.568;4.656;2022-08-05T06:55:04;1.70;;;0.70;;
68256;SDS011;55069;51.568;4.656;2022-08-05T06:57:30;1.80;;;0.80;;
68256;SDS011;55069;51.568;4.656;2022-08-05T06:59:56;1.75;;;0.63;;
68256;SDS011;55069;51.568;4.656;2022-08-05T07:02:22;5.50;;;0.73;;
68256;SDS011;55069;51.568;4.656;2022-08-05T07:04:47;4.82;;;0.70;;
68256;SDS011;55069;51.568;4.656;2022-08-05T07:07:13;2.43;;;0.50;;
68256;SDS011;55069;51.568;4.656;2022-08-05T07:09:39;3.47;;;0.63;;
68256;SDS011;55069;51.568;4.656;2022-08-05T07:12:05;2.57;;;0.80;;
68256;SDS011;55069;51.568;4.656;2022-08-05T07:14:31;2.88;;;0.70;;
68256;SDS011;55069;51.568;4.656;2022-08-05T07:17:15;3.72;;;0.80;;
68256;SDS011;55069;51.568;4.656;2022-08-05T07:19:41;1.90;;;0.50;;
68256;SDS011;55069;51.568;4.656;2022-08-05T07:22:06;3.80;;;1.00;;
68256;SDS011;55069;51.568;4.656;2022-08-05T07:24:32;3.40;;;0.67;;
68256;SDS011;55069;51.568;4.656;2022-08-05T07:26:58;4.22;;;1.15;;
68256;SDS011;55069;51.568;4.656;2022-08-05T07:29:23;1.33;;;0.50;;
68256;SDS011;55069;51.568;4.656;2022-08-05T07:31:49;2.72;;;0.73;;
68256;SDS011;55069;51.568;4.656;2022-08-05T07:34:15;4.80;;;0.80;;
68256;SDS011;55069;51.568;4.656;2022-08-05T07:36:41;2.57;;;0.60;;
68256;SDS011;55069;51.568;4.656;2022-08-05T07:39:07;2.20;;;0.50;;
68256;SDS011;55069;51.568;4.656;2022-08-05T07:41:33;3.72;;;0.70;;
68256;SDS011;55069;51.568;4.656;2022-08-05T07:44:00;2.88;;;0.40;;
68256;SDS011;55069;51.568;4.656;2022-08-05T07:46:27;1.02;;;0.50;;
68256;SDS011;55069;51.568;4.656;2022-08-05T07:48:55;6.47;;;0.90;;
68256;SDS011;55069;51.568;4.656;2022-08-05T07:51:22;4.18;;;0.80;;
68256;SDS011;55069;51.568;4.656;2022-08-05T07:53:47;2.70;;;0.60;;
68256;SDS011;55069;51.568;4.656;2022-08-05T07:56:13;2.97;;;0.60;;
68256;SDS011;55069;51.568;4.656;2022-08-05T07:58:39;6.37;;;0.97;;
68256;SDS011;55069;51.568;4.656;2022-08-05T08:01:05;3.47;;;0.60;;
68256;SDS011;55069;51.568;4.656;2022-08-05T08:03:30;3.40;;;0.50;;
68256;SDS011;55069;51.568;4.656;2022-08-05T08:05:56;5.22;;;0.88;;
68256;SDS011;55069;51.568;4.656;2022-08-05T08:08:21;4.60;;;0.50;;
68256;SDS011;55069;51.568;4.656;2022-08-05T08:10:47;1.65;;;0.55;;
68256;SDS011;55069;51.568;4.656;2022-08-05T08:13:13;2.90;;;0.77;;
68256;SDS011;55069;51.568;4.656;2022-08-05T08:15:38;3.95;;;0.98;;
68256;SDS011;55069;51.568;4.656;2022-08-05T08:18:04;11.33;;;1.50;;
68256;SDS011;55069;51.568;4.656;2022-08-05T08:20:30;2.20;;;1.00;;
68256;SDS011;55069;51.568;4.656;2022-08-05T08:22:56;4.47;;;1.03;;
68256;SDS011;55069;51.568;4.656;2022-08-05T08:25:23;1.75;;;0.68;;
68256;SDS011;55069;51.568;4.656;2022-08-05T08:27:50;4.88;;;0.70;;
68256;SDS011;55069;51.568;4.656;2022-08-05T08:30:15;1.73;;;0.70;;
68256;SDS011;55069;51.568;4.656;2022-08-05T08:32:41;2.05;;;0.70;;
68256;SDS011;55069;51.568;4.656;2022-08-05T08:35:07;5.37;;;0.70;;
68256;SDS011;55069;51.568;4.656;2022-08-05T08:37:34;1.70;;;0.80;;
68256;SDS011;55069;51.568;4.656;2022-08-05T08:39:59;2.05;;;0.85;;
68256;SDS011;55069;51.568;4.656;2022-08-05T08:42:25;3.57;;;0.93;;
68256;SDS011;55069;51.568;4.656;2022-08-05T08:44:55;9.02;;;1.92;;
68256;SDS011;55069;51.568;4.656;2022-08-05T08:47:22;2.10;;;0.70;;
68256;SDS011;55069;51.568;4.656;2022-08-05T08:49:53;3.80;;;0.82;;
68256;SDS011;55069;51.568;4.656;2022-08-05T08:52:27;4.25;;;1.00;;
68256;SDS011;55069;51.568;4.656;2022-08-05T08:54:55;3.63;;;0.65;;
68256;SDS011;55069;51.568;4.656;2022-08-05T08:57:21;4.10;;;0.88;;
68256;SDS011;55069;51.568;4.656;2022-08-05T08:59:50;5.30;;;1.05;;
68256;SDS011;55069;51.568;4.656;2022-08-05T09:02:18;9.00;;;1.20;;
68256;SDS011;55069;51.568;4.656;2022-08-05T09:04:44;4.43;;;1.60;;
68256;SDS011;55069;51.568;4.656;2022-08-05T09:07:11;8.40;;;0.95;;
68256;SDS011;55069;51.568;4.656;2022-08-05T09:09:36;1.77;;;0.70;;
68256;SDS011;55069;51.568;4.656;2022-08-05T09:12:03;4.27;;;0.80;;
68256;SDS011;55069;51.568;4.656;2022-08-05T09:14:30;4.50;;;0.80;;
68256;SDS011;55069;51.568;4.656;2022-08-05T09:16:57;2.75;;;0.73;;
68256;SDS011;55069;51.568;4.656;2022-08-05T09:19:24;5.70;;;0.75;;
68256;SDS011;55069;51.568;4.656;2022-08-05T09:21:50;2.90;;;0.75;;
68256;SDS011;55069;51.568;4.656;2022-08-05T09:24:15;1.63;;;0.60;;
68256;SDS011;55069;51.568;4.656;2022-08-05T09:26:45;0.95;;;0.55;;
68256;SDS011;55069;51.568;4.656;2022-08-05T09:29:12;5.70;;;0.52;;
68256;SDS011;55069;51.568;4.656;2022-08-05T09:31:38;2.23;;;0.60;;
68256;SDS011;55069;51.568;4.656;2022-08-05T09:34:08;4.50;;;0.75;;
68256;SDS011;55069;51.568;4.656;2022-08-05T09:36:45;9.60;;;0.75;;
68256;SDS011;55069;51.568;4.656;2022-08-05T09:39:14;3.75;;;0.70;;
68256;SDS011;55069;51.568;4.656;2022-08-05T09:44:49;4.80;;;0.98;;
68256;SDS011;55069;51.568;4.656;2022-08-05T09:47:17;40.72;;;3.45;;
68256;SDS011;55069;51.568;4.656;2022-08-05T09:49:45;60.70;;;5.25;;
68256;SDS011;55069;51.568;4.656;2022-08-05T09:55:34;9.40;;;2.05;;
68256;SDS011;55069;51.568;4.656;2022-08-05T09:57:37;38.38;;;2.38;;
68256;SDS011;55069;51.568;4.656;2022-08-05T10:02:43;1.75;;;0.70;;
68256;SDS011;55069;51.568;4.656;2022-08-05T10:07:47;2.85;;;0.68;;
68256;SDS011;55069;51.568;4.656;2022-08-05T10:10:26;8.55;;;0.77;;
68256;SDS011;55069;51.568;4.656;2022-08-05T10:13:03;5.32;;;0.93;;
68256;SDS011;55069;51.568;4.656;2022-08-05T10:15:30;5.20;;;0.63;;
68256;SDS011;55069;51.568;4.656;2022-08-05T10:20:48;77.13;;;6.47;;
68256;SDS011;55069;51.568;4.656;2022-08-05T10:23:20;56.13;;;5.35;;
68256;SDS011;55069;51.568;4.656;2022-08-05T10:25:48;17.90;;;2.53;;
68256;SDS011;55069;51.568;4.656;2022-08-05T10:28:14;16.67;;;1.70;;
68256;SDS011;55069;51.568;4.656;2022-08-05T10:30:40;12.85;;;1.55;;
68256;SDS011;55069;51.568;4.656;2022-08-05T10:33:06;8.07;;;0.80;;
68256;SDS011;55069;51.568;4.656;2022-08-05T10:35:33;24.65;;;2.55;;
68256;SDS011;55069;51.568;4.656;2022-08-05T10:38:00;52.33;;;4.68;;
68256;SDS011;55069;51.568;4.656;2022-08-05T10:40:33;30.95;;;3.70;;
68256;SDS011;55069;51.568;4.656;2022-08-05T10:43:12;53.63;;;4.45;;
68256;SDS011;55069;51.568;4.656;2022-08-05T10:45:58;17.17;;;1.65;;
68256;SDS011;55069;51.568;4.656;2022-08-05T10:48:27;30.92;;;3.45;;
68256;SDS011;55069;51.568;4.656;2022-08-05T10:50:56;11.80;;;1.55;;
68256;SDS011;55069;51.568;4.656;2022-08-05T10:53:44;9.27;;;0.90;;
68256;SDS011;55069;51.568;4.656;2022-08-05T10:56:21;4.97;;;0.70;;
68256;SDS011;55069;51.568;4.656;2022-08-05T10:59:09;13.88;;;0.75;;
68256;SDS011;55069;51.568;4.656;2022-08-05T11:01:35;6.35;;;0.75;;
68256;SDS011;55069;51.568;4.656;2022-08-05T11:04:21;2.85;;;0.50;;
68256;SDS011;55069;51.568;4.656;2022-08-05T11:07:20;6.45;;;0.60;;
68256;SDS011;55069;51.568;4.656;2022-08-05T11:09:48;6.05;;;0.60;;
68256;SDS011;55069;51.568;4.656;2022-08-05T11:15:26;2.47;;;0.85;;
68256;SDS011;55069;51.568;4.656;2022-08-05T11:18:37;19.92;;;1.48;;
68256;SDS011;55069;51.568;4.656;2022-08-05T11:20:53;20.02;;;1.42;;
68256;SDS011;55069;51.568;4.656;2022-08-05T11:36:09;4.45;;;0.68;;
68256;SDS011;55069;51.568;4.656;2022-08-05T11:44:00;4.40;;;1.10;;
68256;SDS011;55069;51.568;4.656;2022-08-05T11:46:28;2.75;;;0.57;;
68256;SDS011;55069;51.568;4.656;2022-08-05T11:48:54;1.65;;;0.68;;
68256;SDS011;55069;51.568;4.656;2022-08-05T11:51:20;2.58;;;0.60;;
68256;SDS011;55069;51.568;4.656;2022-08-05T11:53:46;3.25;;;0.88;;
68256;SDS011;55069;51.568;4.656;2022-08-05T11:56:12;3.28;;;0.70;;
68256;SDS011;55069;51.568;4.656;2022-08-05T11:58:40;8.48;;;0.70;;
68256;SDS011;55069;51.568;4.656;2022-08-05T12:01:09;1.88;;;0.60;;
68256;SDS011;55069;51.568;4.656;2022-08-05T12:03:49;3.87;;;0.60;;
68256;SDS011;55069;51.568;4.656;2022-08-05T12:06:18;3.00;;;0.70;;
68256;SDS011;55069;51.568;4.656;2022-08-05T12:08:49;5.03;;;0.75;;
68256;SDS011;55069;51.568;4.656;2022-08-05T12:11:22;3.05;;;0.40;;
68256;SDS011;55069;51.568;4.656;2022-08-05T12:13:57;2.67;;;0.40;;
68256;SDS011;55069;51.568;4.656;2022-08-05T12:16:40;1.90;;;0.40;;
68256;SDS011;55069;51.568;4.656;2022-08-05T12:19:07;2.45;;;0.65;;
68256;SDS011;55069;51.568;4.656;2022-08-05T12:21:42;2.00;;;0.60;;
68256;SDS011;55069;51.568;4.656;2022-08-05T12:24:16;1.42;;;0.43;;
68256;SDS011;55069;51.568;4.656;2022-08-05T12:26:45;0.90;;;0.40;;
68256;SDS011;55069;51.568;4.656;2022-08-05T12:29:22;2.47;;;0.53;;
68256;SDS011;55069;51.568;4.656;2022-08-05T12:31:52;1.60;;;0.52;;
68256;SDS011;55069;51.568;4.656;2022-08-05T12:34:26;3.80;;;0.73;;
68256;SDS011;55069;51.568;4.656;2022-08-05T12:36:54;1.13;;;0.65;;
68256;SDS011;55069;51.568;4.656;2022-08-05T12:39:25;1.00;;;0.68;;
68256;SDS011;55069;51.568;4.656;2022-08-05T12:41:56;1.37;;;0.53;;
68256;SDS011;55069;51.568;4.656;2022-08-05T12:44:23;11.95;;;0.75;;
68256;SDS011;55069;51.568;4.656;2022-08-05T12:46:51;1.33;;;0.60;;
68256;SDS011;55069;51.568;4.656;2022-08-05T12:49:17;2.40;;;0.60;;
68256;SDS011;55069;51.568;4.656;2022-08-05T12:51:44;2.13;;;0.63;;
68256;SDS011;55069;51.568;4.656;2022-08-05T12:54:17;3.90;;;0.57;;
68256;SDS011;55069;51.568;4.656;2022-08-05T12:56:51;0.65;;;0.30;;
68256;SDS011;55069;51.568;4.656;2022-08-05T12:59:26;1.63;;;0.60;;
68256;SDS011;55069;51.568;4.656;2022-08-05T13:01:55;2.13;;;0.60;;
68256;SDS011;55069;51.568;4.656;2022-08-05T13:04:26;2.15;;;0.45;;
68256;SDS011;55069;51.568;4.656;2022-08-05T13:06:57;4.63;;;0.87;;
68256;SDS011;55069;51.568;4.656;2022-08-05T13:09:25;2.85;;;0.60;;
68256;SDS011;55069;51.568;4.656;2022-08-05T13:14:36;3.28;;;0.95;;
68256;SDS011;55069;51.568;4.656;2022-08-05T13:17:07;2.58;;;0.90;;
68256;SDS011;55069;51.568;4.656;2022-08-05T13:19:34;4.80;;;1.20;;
68256;SDS011;55069;51.568;4.656;2022-08-05T13:22:01;6.63;;;1.30;;
68256;SDS011;55069;51.568;4.656;2022-08-05T13:24:26;5.93;;;0.90;;
68256;SDS011;55069;51.568;4.656;2022-08-05T13:26:52;3.13;;;0.70;;
68256;SDS011;55069;51.568;4.656;2022-08-05T13:29:18;1.90;;;0.50;;
68256;SDS011;55069;51.568;4.656;2022-08-05T13:31:46;4.53;;;0.80;;
68256;SDS011;55069;51.568;4.656;2022-08-05T13:34:12;5.95;;;0.80;;
68256;SDS011;55069;51.568;4.656;2022-08-05T13:36:37;3.87;;;0.67;;
68256;SDS011;55069;51.568;4.656;2022-08-05T13:39:04;1.33;;;0.50;;
68256;SDS011;55069;51.568;4.656;2022-08-05T13:41:30;2.05;;;0.50;;
68256;SDS011;55069;51.568;4.656;2022-08-05T13:43:56;1.90;;;0.67;;
68256;SDS011;55069;51.568;4.656;2022-08-05T13:46:22;0.82;;;0.60;;
68256;SDS011;55069;51.568;4.656;2022-08-05T13:48:49;4.18;;;0.70;;
68256;SDS011;55069;51.568;4.656;2022-08-05T13:51:15;2.07;;;0.60;;
68256;SDS011;55069;51.568;4.656;2022-08-05T13:53:49;3.28;;;0.50;;
68256;SDS011;55069;51.568;4.656;2022-08-05T13:56:15;1.80;;;0.50;;
68256;SDS011;55069;51.568;4.656;2022-08-05T13:58:41;1.73;;;0.40;;
68256;SDS011;55069;51.568;4.656;2022-08-05T14:01:06;4.95;;;0.60;;
68256;SDS011;55069;51.568;4.656;2022-08-05T14:03:32;2.97;;;0.63;;
68256;SDS011;55069;51.568;4.656;2022-08-05T14:06:00;3.97;;;0.70;;
68256;SDS011;55069;51.568;4.656;2022-08-05T14:08:25;4.23;;;0.80;;
68256;SDS011;55069;51.568;4.656;2022-08-05T14:10:52;2.08;;;0.68;;
68256;SDS011;55069;51.568;4.656;2022-08-05T14:13:17;4.97;;;0.88;;
68256;SDS011;55069;51.568;4.656;2022-08-05T14:15:43;3.80;;;0.60;;
68256;SDS011;55069;51.568;4.656;2022-08-05T14:18:09;2.10;;;0.70;;
68256;SDS011;55069;51.568;4.656;2022-08-05T14:20:37;5.43;;;0.60;;
68256;SDS011;55069;51.568;4.656;2022-08-05T14:23:03;3.80;;;0.50;;
68256;SDS011;55069;51.568;4.656;2022-08-05T14:25:28;5.65;;;0.80;;
68256;SDS011;55069;51.568;4.656;2022-08-05T14:27:57;2.03;;;0.68;;
68256;SDS011;55069;51.568;4.656;2022-08-05T14:30:22;3.47;;;0.60;;
68256;SDS011;55069;51.568;4.656;2022-08-05T14:32:49;2.80;;;0.60;;
68256;SDS011;55069;51.568;4.656;2022-08-05T14:35:15;8.70;;;0.68;;
68256;SDS011;55069;51.568;4.656;2022-08-05T14:37:41;2.65;;;0.55;;
68256;SDS011;55069;51.568;4.656;2022-08-05T14:40:06;3.05;;;0.90;;
68256;SDS011;55069;51.568;4.656;2022-08-05T14:42:33;1.80;;;0.50;;
68256;SDS011;55069;51.568;4.656;2022-08-05T14:45:00;2.28;;;0.45;;
68256;SDS011;55069;51.568;4.656;2022-08-05T14:47:26;3.50;;;0.68;;
68256;SDS011;55069;51.568;4.656;2022-08-05T14:49:52;4.77;;;0.50;;
68256;SDS011;55069;51.568;4.656;2022-08-05T14:52:18;3.90;;;0.73;;
68256;SDS011;55069;51.568;4.656;2022-08-05T14:54:44;1.77;;;0.60;;
68256;SDS011;55069;51.568;4.656;2022-08-05T14:57:13;4.82;;;0.82;;
68256;SDS011;55069;51.568;4.656;2022-08-05T14:59:39;2.07;;;0.67;;
68256;SDS011;55069;51.568;4.656;2022-08-05T15:02:04;4.80;;;0.60;;
68256;SDS011;55069;51.568;4.656;2022-08-05T15:04:30;2.95;;;0.60;;
68256;SDS011;55069;51.568;4.656;2022-08-05T15:06:56;7.55;;;1.00;;
68256;SDS011;55069;51.568;4.656;2022-08-05T15:09:24;4.37;;;0.97;;
68256;SDS011;55069;51.568;4.656;2022-08-05T15:11:49;2.70;;;0.73;;
68256;SDS011;55069;51.568;4.656;2022-08-05T15:14:15;3.60;;;0.90;;
68256;SDS011;55069;51.568;4.656;2022-08-05T15:16:42;4.13;;;1.00;;
68256;SDS011;55069;51.568;4.656;2022-08-05T15:19:07;3.38;;;0.80;;
68256;SDS011;55069;51.568;4.656;2022-08-05T15:21:33;3.63;;;1.10;;
68256;SDS011;55069;51.568;4.656;2022-08-05T15:23:59;8.07;;;1.43;;
68256;SDS011;55069;51.568;4.656;2022-08-05T15:26:25;5.10;;;0.90;;
68256;SDS011;55069;51.568;4.656;2022-08-05T15:28:50;2.37;;;0.80;;
68256;SDS011;55069;51.568;4.656;2022-08-05T15:31:19;3.33;;;0.68;;
68256;SDS011;55069;51.568;4.656;2022-08-05T15:33:45;2.53;;;0.73;;
68256;SDS011;55069;51.568;4.656;2022-08-05T15:36:10;4.47;;;1.07;;
68256;SDS011;55069;51.568;4.656;2022-08-05T15:38:36;7.50;;;1.40;;